メインページ
METAR-TAF:

METAR-TAF

空港 :

ポワンタピートル, グアドループ

ポワンタピートル国際空港

緯度: 16-16N, 経度: 061-31W, 海抜: 11m

現時点の気象観測

当レポートは37分前の11:30(UTC)に作成
東/南東の風 4kt
気温 25°C
湿度 79%
気圧 1016 hPa
視程10km以上
1,500メートル以下は雲なし、積乱雲なし

METAR: TFFR 241130Z AUTO 11004KT CAVOK 25/21 Q1016 NOSIG

時間: 08:07 (12:07 UTC)

予報

当レポートは1時間7分前の11:00(UTC)に作成
予報は24日の 12時(UTC)から 25日の 12時(UTC)まで有効
東/南東の風 13kt
視程10km以上
高度2600ftの雲は散在している
24日の 23時(UTC)から 25日の 01時(UTC)まで徐々に
東/南東の風 3kt
確率 30% :
25日の 00時(UTC)から 25日の 06時(UTC)まで一時的に
視程: 4000m
高度1800ftの雲は散在している, 塔状積雲.
にわか雨

TAF: TFFR 241100Z 2412/2512 12013KT 9999 SCT026 BECMG 2423/2501 12003KT PROB30 TEMPO 2500/2506 4000 SHRA SCT018TCU

4,000以上の空港の気象観測と天気予報(METAR報とTAF報)

利用可能な観測所は地図上に黄色い丸と赤い丸で示す。

丸の上にカーソルを重ねると観測所名を参照できる。

次にクリックすると気象観測と天気予報を参照できる。

マップの切り替え:黒色「×」印の緑ボタンをクリックして拡大、「-」印の緑ボタンをクリックして縮小、緑色の三角印をクリックして隣りの地図に切り替え


METAR-TAF: